Commodore Goodwill — C6NU8 — position and weather

sailwx.info

Track history (hours):
 
Tides and Currents Weather Stations Pressure Air Temp Water Temp Dewpoint Dewpoint Depression Visibility Wind Speed Wind Dir Waves Ship Positions

Commodore Goodwill

Operator: Condor Marine Services

Last reported at 2020-Apr-06 15:31 UTC. Time now 2020-Apr-06 17:39 UTC.
Position N 50°49' W 001°06'.

Length 126 m; draft 4.7 m.

Type: Cargo ship. MMSI: 309536000.

Date/timePositionNaut miles runAvg speedWind from/ knotsBaromVisibWave heightAir tempDewpointWater temp
2020-Apr-06 15:31N 50°49' W 001°06'15 9.7
2020-Apr-06 14:00N 50°34' W 001°07'5712.7
2020-Apr-06 09:31N 49°48' W 001°59'3915.6
2020-Apr-06 07:00N 49°10' W 002°15'5 2.5
2020-Apr-06 04:58N 49°11' W 002°07'4 8.4
2020-Apr-06 04:30N 49°10' W 002°13'1515.3
2020-Apr-06 03:31N 49°22' W 002°27'612.5
2020-Apr-06 03:00N 49°27' W 002°32'0 0.0
2020-Apr-06 02:30N 49°27' W 002°32'1711.6
2020-Apr-06 01:00N 49°36' W 002°08'7013.9
2020-Apr-05 19:57N 50°35' W 001°10'14 9.8
2020-Apr-05 18:30N 50°49' W 001°06'0 0.0
2020-Apr-05 16:00N 50°49' W 001°06'0 0.0
2020-Apr-05 15:00N 50°49' W 001°06'0 0.0
2020-Apr-05 14:30N 50°49' W 001°06'0 0.0
2020-Apr-05 14:00N 50°49' W 001°06'0 0.0
2020-Apr-05 13:30N 50°49' W 001°06'0 0.0
2020-Apr-05 13:00N 50°49' W 001°06'0 0.0
2020-Apr-05 11:00N 50°49' W 001°06'0 0.0
2020-Apr-05 08:00N 50°49' W 001°06'0 0.0
2020-Apr-05 07:30N 50°49' W 001°06'0 0.0
2020-Apr-05 07:00N 50°49' W 001°06'0 0.0
2020-Apr-05 06:30N 50°49' W 001°06'52 9.7
2020-Apr-05 01:07N 50°02' W 001°43'1710.5
2020-Apr-04 23:30N 49°48' W 001°58'11 7.1
2020-Apr-04 22:00N 49°39' W 002°05'5 9.3
2020-Apr-04 21:30N 49°34' W 002°09'13 8.7
2020-Apr-04 20:00N 49°23' W 002°17'4 7.6
2020-Apr-04 19:30N 49°19' W 002°19'21 8.5
2020-Apr-04 17:00N 48°58' W 002°21'20 7.8
2020-Apr-04 14:23N 48°40' W 002°05'3 0.8
2020-Apr-04 10:55N 48°38' W 002°02'511.6
2020-Apr-04 10:28N 48°43' W 002°05'812.7
2020-Apr-04 09:52N 48°50' W 002°01'15 6.4
2020-Apr-04 07:31N 49°05' W 002°01'16 4.5
2020-Apr-04 04:00N 49°14' W 002°21'1111.0
2020-Apr-04 03:00N 49°24' W 002°28'4 7.6
2020-Apr-04 02:30N 49°27' W 002°32'10 6.6
2020-Apr-04 01:00N 49°30' W 002°17'3212.9
2020-Apr-03 22:30N 49°58' W 001°51'713.2
2020-Apr-03 22:01N 50°03' W 001°45'714.8
2020-Apr-03 21:30N 50°09' W 001°38'3114.4
2020-Apr-03 19:22N 50°34' W 001°10'15 5.1
2020-Apr-03 16:30N 50°49' W 001°06'0 0.0
2020-Apr-03 16:00N 50°49' W 001°06'0 0.0
2020-Apr-03 15:30N 50°49' W 001°06'2911.3
2020-Apr-03 12:55N 50°22' W 001°23'3314.5
2020-Apr-03 10:40N 49°54' W 001°52'1015.2
2020-Apr-03 10:00N 49°46' W 002°01'2813.8
2020-Apr-03 08:00N 49°26' W 002°29'2 3.9
2020-Apr-03 07:30N 49°27' W 002°32'12 8.0
2020-Apr-03 06:00N 49°16' W 002°25'815.3
2020-Apr-03 05:30N 49°10' W 002°17'713.6
2020-Apr-03 05:00N 49°11' W 002°07'0 0.0
2020-Apr-03 03:58N 49°11' W 002°07'0 0.0
2020-Apr-03 03:28N 49°11' W 002°07'5 5.7
2020-Apr-03 02:30N 49°10' W 002°15'10114.1
2020-Apr-02 19:21N 50°40' W 001°04'515.6
2020-Apr-02 19:01N 50°45' W 001°05'4 7.6
2020-Apr-02 18:31N 50°49' W 001°06'0 0.0
2020-Apr-02 15:30N 50°49' W 001°06'2110.5
2020-Apr-02 13:30N 50°29' W 001°16'3813.6
2020-Apr-02 10:40N 49°57' W 001°50'414.0
2020-Apr-02 10:21N 49°53' W 001°54'1113.5
2020-Apr-02 09:30N 49°44' W 002°03'2113.8
2020-Apr-02 08:00N 49°25' W 002°15'714.5
2020-Apr-02 07:31N 49°18' W 002°20'11 5.3
2020-Apr-02 05:23N 49°11' W 002°07'23 8.1
2020-Apr-02 02:30N 49°27' W 002°32'4 7.5
2020-Apr-02 02:00N 49°26' W 002°26'9612.8
2020-Apr-01 18:30N 50°48' W 001°07'1 2.5
2020-Apr-01 18:00N 50°49' W 001°06'0 0.0
2020-Apr-01 17:00N 50°49' W 001°06'0 0.0
2020-Apr-01 16:30N 50°49' W 001°06'7312.2
2020-Apr-01 10:30N 49°45' W 002°02'3614.2
2020-Apr-01 08:00N 49°10' W 002°08'1 2.0
2020-Apr-01 07:25N 49°11' W 002°07'105 7.9
2020-Mar-31 18:00N 50°49' W 001°06'1 0.3
2020-Mar-31 16:30N 50°49' W 001°06'0 0.0
2020-Mar-31 16:00N 50°49' W 001°06'6112.6
2020-Mar-31 11:11N 49°56' W 001°53'317.3
2020-Mar-31 11:01N 49°53' W 001°55'1615.9
2020-Mar-31 10:00N 49°39' W 002°06'816.7
2020-Mar-31 09:31N 49°31' W 002°11'1716.6
2020-Mar-31 08:31N 49°16' W 002°21'10 8.2
2020-Mar-31 07:14N 49°11' W 002°07'0 0.0
2020-Mar-31 06:29N 49°11' W 002°07'12 7.9
2020-Mar-31 05:00N 49°13' W 002°24'3 5.7
2020-Mar-31 04:30N 49°14' W 002°28'6 5.6
2020-Mar-31 03:30N 49°19' W 002°30'13 5.2
2020-Mar-31 01:00N 49°30' W 002°19'2013.5
2020-Mar-30 23:30N 49°46' W 001°60'7211.9
2020-Mar-30 17:30N 50°49' W 001°06'0 0.0
2020-Mar-30 16:30N 50°49' W 001°06'2 0.8
2020-Mar-30 14:30N 50°47' W 001°07'714.2
2020-Mar-30 14:01N 50°40' W 001°03'5716.1
2020-Mar-30 10:30N 49°54' W 001°54'3919.6
2020-Mar-30 08:30N 49°18' W 002°19'816.0
2020-Mar-30 08:00N 49°10' W 002°17'7 3.4
2020-Mar-30 06:00N 49°11' W 002°07'510.8
2020-Mar-30 05:30N 49°10' W 002°15'5 5.5
2020-Mar-30 04:30N 49°12' W 002°23'17 6.7
2020-Mar-30 02:00N 49°27' W 002°32'4 7.3
2020-Mar-30 01:31N 49°26' W 002°27'3612.1
2020-Mar-29 22:30N 49°55' W 001°53'4912.5
2020-Mar-29 18:37N 50°35' W 001°10'915.4
2020-Mar-29 18:00N 50°44' W 001°03'510.7
2020-Mar-29 17:31N 50°49' W 001°06'0 0.1
2020-Mar-29 16:30N 50°49' W 001°06'0 0.0
2020-Mar-29 14:30N 50°49' W 001°06'0 0.0
2020-Mar-29 13:30N 50°49' W 001°06'0 0.0
2020-Mar-29 13:00N 50°49' W 001°06'0 0.0
2020-Mar-29 12:30N 50°49' W 001°06'0 0.0
2020-Mar-29 11:30N 50°49' W 001°06'0 0.0
2020-Mar-29 09:00N 50°49' W 001°06'77 8.6
2020-Mar-29 00:00N 49°41' W 002°05'5 9.9
2020-Mar-28 23:30N 49°36' W 002°08'2710.6
2020-Mar-28 21:00N 49°12' W 002°22'13 8.6
2020-Mar-28 19:30N 48°59' W 002°22'15 1.3
2020-Mar-28 08:30N 49°06' W 002°02'6 2.9
2020-Mar-28 06:30N 49°11' W 002°07'0 0.0
2020-Mar-28 05:57N 49°11' W 002°07'23 7.9
2020-Mar-28 03:00N 49°27' W 002°32'4 7.4
2020-Mar-28 02:30N 49°26' W 002°26'714.0
2020-Mar-28 02:00N 49°30' W 002°18'1413.6
2020-Mar-28 01:01N 49°41' W 002°05'78 9.7
2020-Mar-27 17:00N 50°49' W 001°06'0 1.0
2020-Mar-27 16:30N 50°49' W 001°06'2 4.2
2020-Mar-27 16:00N 50°47' W 001°06'  
Track history (hours):
 
Tides and Currents Weather Stations Pressure Air Temp Water Temp Dewpoint Dewpoint Depression Visibility Wind Speed Wind Dir Waves Ship Positions

Commodore Goodwill

Operator: Condor Marine Services

Last reported at 2020-Apr-06 15:31 UTC. Time now 2020-Apr-06 17:39 UTC.
Position N 50°49' W 001°06'.

Length 126 m; draft 4.7 m.

Type: Cargo ship. MMSI: 309536000.

Date/timePositionNaut miles runAvg speedWind from/ knotsBaromVisibWave heightAir tempDewpointWater temp
2020-Apr-06 15:31N 50°49' W 001°06'15 9.7
2020-Apr-06 14:00N 50°34' W 001°07'5712.7
2020-Apr-06 09:31N 49°48' W 001°59'3915.6
2020-Apr-06 07:00N 49°10' W 002°15'5 2.5
2020-Apr-06 04:58N 49°11' W 002°07'4 8.4
2020-Apr-06 04:30N 49°10' W 002°13'1515.3
2020-Apr-06 03:31N 49°22' W 002°27'612.5
2020-Apr-06 03:00N 49°27' W 002°32'0 0.0
2020-Apr-06 02:30N 49°27' W 002°32'1711.6
2020-Apr-06 01:00N 49°36' W 002°08'7013.9
2020-Apr-05 19:57N 50°35' W 001°10'14 9.8
2020-Apr-05 18:30N 50°49' W 001°06'0 0.0
2020-Apr-05 16:00N 50°49' W 001°06'0 0.0
2020-Apr-05 15:00N 50°49' W 001°06'0 0.0
2020-Apr-05 14:30N 50°49' W 001°06'0 0.0
2020-Apr-05 14:00N 50°49' W 001°06'0 0.0
2020-Apr-05 13:30N 50°49' W 001°06'0 0.0
2020-Apr-05 13:00N 50°49' W 001°06'0 0.0
2020-Apr-05 11:00N 50°49' W 001°06'0 0.0
2020-Apr-05 08:00N 50°49' W 001°06'0 0.0
2020-Apr-05 07:30N 50°49' W 001°06'0 0.0
2020-Apr-05 07:00N 50°49' W 001°06'0 0.0
2020-Apr-05 06:30N 50°49' W 001°06'52 9.7
2020-Apr-05 01:07N 50°02' W 001°43'1710.5
2020-Apr-04 23:30N 49°48' W 001°58'11 7.1
2020-Apr-04 22:00N 49°39' W 002°05'5 9.3
2020-Apr-04 21:30N 49°34' W 002°09'13 8.7
2020-Apr-04 20:00N 49°23' W 002°17'4 7.6
2020-Apr-04 19:30N 49°19' W 002°19'21 8.5
2020-Apr-04 17:00N 48°58' W 002°21'20 7.8
2020-Apr-04 14:23N 48°40' W 002°05'3 0.8
2020-Apr-04 10:55N 48°38' W 002°02'511.6
2020-Apr-04 10:28N 48°43' W 002°05'812.7
2020-Apr-04 09:52N 48°50' W 002°01'15 6.4
2020-Apr-04 07:31N 49°05' W 002°01'16 4.5
2020-Apr-04 04:00N 49°14' W 002°21'1111.0
2020-Apr-04 03:00N 49°24' W 002°28'4 7.6
2020-Apr-04 02:30N 49°27' W 002°32'10 6.6
2020-Apr-04 01:00N 49°30' W 002°17'3212.9
2020-Apr-03 22:30N 49°58' W 001°51'713.2
2020-Apr-03 22:01N 50°03' W 001°45'714.8
2020-Apr-03 21:30N 50°09' W 001°38'3114.4
2020-Apr-03 19:22N 50°34' W 001°10'15 5.1
2020-Apr-03 16:30N 50°49' W 001°06'0 0.0
2020-Apr-03 16:00N 50°49' W 001°06'0 0.0
2020-Apr-03 15:30N 50°49' W 001°06'2911.3
2020-Apr-03 12:55N 50°22' W 001°23'3314.5
2020-Apr-03 10:40N 49°54' W 001°52'1015.2
2020-Apr-03 10:00N 49°46' W 002°01'2813.8
2020-Apr-03 08:00N 49°26' W 002°29'2 3.9
2020-Apr-03 07:30N 49°27' W 002°32'12 8.0
2020-Apr-03 06:00N 49°16' W 002°25'815.3
2020-Apr-03 05:30N 49°10' W 002°17'713.6
2020-Apr-03 05:00N 49°11' W 002°07'0 0.0
2020-Apr-03 03:58N 49°11' W 002°07'0 0.0
2020-Apr-03 03:28N 49°11' W 002°07'5 5.7
2020-Apr-03 02:30N 49°10' W 002°15'10114.1
2020-Apr-02 19:21N 50°40' W 001°04'515.6
2020-Apr-02 19:01N 50°45' W 001°05'4 7.6
2020-Apr-02 18:31N 50°49' W 001°06'0 0.0
2020-Apr-02 15:30N 50°49' W 001°06'2110.5
2020-Apr-02 13:30N 50°29' W 001°16'3813.6
2020-Apr-02 10:40N 49°57' W 001°50'414.0
2020-Apr-02 10:21N 49°53' W 001°54'1113.5
2020-Apr-02 09:30N 49°44' W 002°03'2113.8
2020-Apr-02 08:00N 49°25' W 002°15'714.5
2020-Apr-02 07:31N 49°18' W 002°20'11 5.3
2020-Apr-02 05:23N 49°11' W 002°07'23 8.1
2020-Apr-02 02:30N 49°27' W 002°32'4 7.5
2020-Apr-02 02:00N 49°26' W 002°26'9612.8
2020-Apr-01 18:30N 50°48' W 001°07'1 2.5
2020-Apr-01 18:00N 50°49' W 001°06'0 0.0
2020-Apr-01 17:00N 50°49' W 001°06'0 0.0
2020-Apr-01 16:30N 50°49' W 001°06'7312.2
2020-Apr-01 10:30N 49°45' W 002°02'3614.2
2020-Apr-01 08:00N 49°10' W 002°08'1 2.0
2020-Apr-01 07:25N 49°11' W 002°07'105 7.9
2020-Mar-31 18:00N 50°49' W 001°06'1 0.3
2020-Mar-31 16:30N 50°49' W 001°06'0 0.0
2020-Mar-31 16:00N 50°49' W 001°06'6112.6
2020-Mar-31 11:11N 49°56' W 001°53'317.3
2020-Mar-31 11:01N 49°53' W 001°55'1615.9
2020-Mar-31 10:00N 49°39' W 002°06'816.7
2020-Mar-31 09:31N 49°31' W 002°11'1716.6
2020-Mar-31 08:31N 49°16' W 002°21'10 8.2
2020-Mar-31 07:14N 49°11' W 002°07'0 0.0
2020-Mar-31 06:29N 49°11' W 002°07'12 7.9
2020-Mar-31 05:00N 49°13' W 002°24'3 5.7
2020-Mar-31 04:30N 49°14' W 002°28'6 5.6
2020-Mar-31 03:30N 49°19' W 002°30'13 5.2
2020-Mar-31 01:00N 49°30' W 002°19'2013.5
2020-Mar-30 23:30N 49°46' W 001°60'7211.9
2020-Mar-30 17:30N 50°49' W 001°06'0 0.0
2020-Mar-30 16:30N 50°49' W 001°06'2 0.8
2020-Mar-30 14:30N 50°47' W 001°07'714.2
2020-Mar-30 14:01N 50°40' W 001°03'5716.1
2020-Mar-30 10:30N 49°54' W 001°54'3919.6
2020-Mar-30 08:30N 49°18' W 002°19'816.0
2020-Mar-30 08:00N 49°10' W 002°17'7 3.4
2020-Mar-30 06:00N 49°11' W 002°07'510.8
2020-Mar-30 05:30N 49°10' W 002°15'5 5.5
2020-Mar-30 04:30N 49°12' W 002°23'17 6.7
2020-Mar-30 02:00N 49°27' W 002°32'4 7.3
2020-Mar-30 01:31N 49°26' W 002°27'3612.1
2020-Mar-29 22:30N 49°55' W 001°53'4912.5
2020-Mar-29 18:37N 50°35' W 001°10'915.4
2020-Mar-29 18:00N 50°44' W 001°03'510.7
2020-Mar-29 17:31N 50°49' W 001°06'0 0.1
2020-Mar-29 16:30N 50°49' W 001°06'0 0.0
2020-Mar-29 14:30N 50°49' W 001°06'0 0.0
2020-Mar-29 13:30N 50°49' W 001°06'0 0.0
2020-Mar-29 13:00N 50°49' W 001°06'0 0.0
2020-Mar-29 12:30N 50°49' W 001°06'0 0.0
2020-Mar-29 11:30N 50°49' W 001°06'0 0.0
2020-Mar-29 09:00N 50°49' W 001°06'77 8.6
2020-Mar-29 00:00N 49°41' W 002°05'5 9.9
2020-Mar-28 23:30N 49°36' W 002°08'2710.6
2020-Mar-28 21:00N 49°12' W 002°22'13 8.6
2020-Mar-28 19:30N 48°59' W 002°22'15 1.3
2020-Mar-28 08:30N 49°06' W 002°02'6 2.9
2020-Mar-28 06:30N 49°11' W 002°07'0 0.0
2020-Mar-28 05:57N 49°11' W 002°07'23 7.9
2020-Mar-28 03:00N 49°27' W 002°32'4 7.4
2020-Mar-28 02:30N 49°26' W 002°26'714.0
2020-Mar-28 02:00N 49°30' W 002°18'1413.6
2020-Mar-28 01:01N 49°41' W 002°05'78 9.7
2020-Mar-27 17:00N 50°49' W 001°06'0 1.0
2020-Mar-27 16:30N 50°49' W 001°06'2 4.2
2020-Mar-27 16:00N 50°47' W 001°06'  

Dump ship's entire track history